LiveATC.Net - Listen to live air traffic control over the Internet!


ICAO: FA40  IATA: FA40   Airport: Hidden Lake Airport
City: New Port Richey   State/Province: Florida
Country: United States   Continent: North America
KBKV METAR Weather: KBKV 202053Z 08010KT 10SM SCT060 29/18 A3007 RMK AO2 SLP179 T02940178 56009
FA40 Flight Activity (FlightAware)
FA40 CTAF
Feed Status: DOWN
Last heard on: 2017-10-18 02:35:02 (2 days 18 hours 49 minutes ago)
FA40 CTAF Audio Archives
FacilityFrequency
Hidden Lake CTAF123.000


NOTICE

Unauthorized use prohibited. See LiveATC.net Terms of Service


Find LiveATC Audio Streams


Airport/ARTCC Code

Frequency Search
(e.g., 124.400, 128.75)
Site-wide search
 


Browse LiveATC Feeds
LiveATC Coverage Map
Top 50 LiveATC Feeds
Bad Weather Areas

LiveATC FAQ
Offer a LiveATC Feed
Contact LiveATC.net
Press Inquiries

LiveATC on iPhone
LiveATC on Android

Windows Phone
Windows 8/10

LiveATC Mobile
(Mobile browser)

ATC Audio Archives
Interesting Recordings

LiveATC Forums


Home Page
About LiveATC.net
Make a Donation
LiveATC Store

Terms of Use
Privacy Policy

Canadian Air Freqs

AIRMETs/SIGMETs

FAA Airport Status
Nat'l Airspace Status
Arrival Demand Charts


Server Software By:
Icecast.org
Liquidsoap